Time;durP1;ratioP1;P1;durP2;ratioP2;P2;SDS_P1;SDS_P2;PMS_P1;PMS_P2;Temp;Humidity;BMP_temperature;BMP_pressure;BME280_temperature;BME280_humidity;BME280_pressure;Samples;Min_cycle;Max_cycle;Signal;HPM_P1;HPM_P2
2022/04/27 00:02:10;;;;;;;0.50;0.40;;;6.40;99.90;;;;;;5035714;28;20711;-80
2022/04/27 00:04:37;;;;;;;0.50;0.40;;;6.30;99.90;;;;;;5035344;28;20203;-80
2022/04/27 00:07:06;;;;;;;0.50;0.40;;;6.30;99.90;;;;;;5035747;28;20195;-79
2022/04/27 00:09:33;;;;;;;0.50;0.40;;;6.30;99.90;;;;;;5034753;28;20199;-80
2022/04/27 00:12:01;;;;;;;0.50;0.50;;;6.20;99.90;;;;;;5035107;28;20223;-80
2022/04/27 00:14:30;;;;;;;0.50;0.40;;;6.20;99.90;;;;;;5034877;28;20203;-80
2022/04/27 00:16:57;;;;;;;0.50;0.40;;;6.20;99.90;;;;;;5035383;28;20215;-79
2022/04/27 00:19:24;;;;;;;0.50;0.40;;;6.20;99.90;;;;;;5034494;28;20199;-80
2022/04/27 00:21:51;;;;;;;0.50;0.40;;;6.20;99.90;;;;;;5035004;28;20732;-79
2022/04/27 00:24:17;;;;;;;0.50;0.50;;;6.20;99.90;;;;;;5034546;28;20684;-80
2022/04/27 00:26:44;;;;;;;0.50;0.40;;;6.30;99.90;;;;;;5035732;28;20241;-79
2022/04/27 00:29:11;;;;;;;0.50;0.40;;;6.20;99.90;;;;;;5035093;28;20211;-79
2022/04/27 00:31:39;;;;;;;0.50;0.40;;;6.10;99.90;;;;;;5035299;28;20215;-80
2022/04/27 00:34:06;;;;;;;0.60;0.40;;;6.10;99.90;;;;;;5035844;28;20199;-80
2022/04/27 00:36:33;;;;;;;0.50;0.40;;;6.10;99.90;;;;;;5034734;28;20215;-79
2022/04/27 00:39:00;;;;;;;0.50;0.40;;;6.00;99.90;;;;;;5034834;28;20222;-79
2022/04/27 00:41:27;;;;;;;0.50;0.40;;;6.00;99.90;;;;;;5034305;28;20216;-79
2022/04/27 00:43:54;;;;;;;0.50;0.40;;;6.00;99.90;;;;;;5033983;28;20204;-79
2022/04/27 00:46:21;;;;;;;0.50;0.40;;;6.00;99.90;;;;;;5034494;28;20198;-79
2022/04/27 00:48:49;;;;;;;0.50;0.40;;;6.00;99.90;;;;;;5034495;28;20207;-78
2022/04/27 00:51:19;;;;;;;0.50;0.40;;;6.00;99.90;;;;;;5034553;28;20592;-80
2022/04/27 00:53:48;;;;;;;0.50;0.40;;;5.90;99.90;;;;;;5034547;28;20200;-80
2022/04/27 00:56:17;;;;;;;0.50;0.40;;;5.90;99.90;;;;;;5033814;28;20219;-79
2022/04/27 00:58:43;;;;;;;0.50;0.50;;;5.80;99.90;;;;;;5034179;28;20199;-79
2022/04/27 01:01:11;;;;;;;0.50;0.40;;;5.80;99.90;;;;;;5034198;28;20665;-79
2022/04/27 01:03:38;;;;;;;0.50;0.40;;;5.80;99.90;;;;;;5034799;28;20268;-79
2022/04/27 01:06:06;;;;;;;0.50;0.40;;;5.80;99.90;;;;;;5034434;28;20191;-79
2022/04/27 01:08:33;;;;;;;0.50;0.40;;;5.80;99.90;;;;;;5033978;28;20672;-80
2022/04/27 01:11:02;;;;;;;0.50;0.40;;;5.80;99.90;;;;;;5034339;28;20588;-80
2022/04/27 01:13:29;;;;;;;0.50;0.40;;;5.80;99.90;;;;;;5033998;28;20206;-79
2022/04/27 01:15:56;;;;;;;0.50;0.40;;;5.80;99.90;;;;;;5033752;28;20284;-78
2022/04/27 01:18:23;;;;;;;1.85;1.75;;;5.80;99.90;;;;;;5033632;28;20191;-79
2022/04/27 01:20:51;;;;;;;0.50;0.40;;;5.80;99.90;;;;;;5034005;28;20207;-79
2022/04/27 01:23:18;;;;;;;0.50;0.40;;;5.80;99.90;;;;;;5034031;28;20227;-79
2022/04/27 01:25:50;;;;;;;0.50;0.40;;;5.70;99.90;;;;;;5034355;28;20525;-79
2022/04/27 01:28:19;;;;;;;0.50;0.40;;;5.70;99.90;;;;;;5033787;28;20202;-79
2022/04/27 01:30:46;;;;;;;0.50;0.40;;;5.70;99.90;;;;;;5033485;28;20229;-79
2022/04/27 01:33:13;;;;;;;0.50;0.40;;;5.70;99.90;;;;;;5034144;28;20310;-78
2022/04/27 01:35:41;;;;;;;0.50;0.40;;;5.70;99.90;;;;;;5033767;28;20222;-79
2022/04/27 01:38:09;;;;;;;0.50;0.40;;;5.60;99.90;;;;;;5033112;28;20249;-80
2022/04/27 01:40:36;;;;;;;0.50;0.40;;;5.70;99.90;;;;;;5034215;28;20199;-78
2022/04/27 01:43:04;;;;;;;0.50;0.40;;;5.60;99.90;;;;;;5033041;28;20224;-79
2022/04/27 01:45:31;;;;;;;0.50;0.40;;;5.60;99.90;;;;;;5033783;28;20194;-78
2022/04/27 01:47:58;;;;;;;0.50;0.40;;;5.60;99.90;;;;;;5033598;28;20202;-79
2022/04/27 01:50:24;;;;;;;0.50;0.40;;;5.60;99.90;;;;;;5033997;28;20569;-80
2022/04/27 01:55:38;;;;;;;0.50;0.40;;;5.50;99.90;;;;;;5032733;28;20209;-78
2022/04/27 01:58:04;;;;;;;0.50;0.40;;;5.40;99.90;;;;;;5032344;28;20199;-78
2022/04/27 02:00:31;;;;;;;0.50;0.40;;;5.40;99.90;;;;;;5032698;28;20221;-78
2022/04/27 02:02:59;;;;;;;0.50;0.40;;;5.30;99.90;;;;;;5032499;28;20226;-77
2022/04/27 02:05:26;;;;;;;1.02;1.02;;;5.30;99.90;;;;;;5032908;28;20195;-79
2022/04/27 02:07:52;;;;;;;0.50;0.40;;;5.30;99.90;;;;;;5032173;28;20199;-78
2022/04/27 02:10:19;;;;;;;0.50;0.40;;;5.30;99.90;;;;;;5032826;28;20195;-79
2022/04/27 02:12:48;;;;;;;0.50;0.40;;;5.20;99.90;;;;;;5032762;28;20226;-78
2022/04/27 02:15:15;;;;;;;0.50;0.40;;;5.20;99.90;;;;;;5039072;28;20195;-80
2022/04/27 02:17:42;;;;;;;0.50;0.40;;;5.20;99.90;;;;;;5052313;28;20723;-80
2022/04/27 02:20:10;;;;;;;0.50;0.40;;;5.10;99.90;;;;;;5052287;28;20209;-77
2022/04/27 02:22:36;;;;;;;0.50;0.40;;;5.10;99.90;;;;;;5051145;28;20261;-79
2022/04/27 02:25:04;;;;;;;0.50;0.40;;;5.00;99.90;;;;;;5037471;28;20207;-77
2022/04/27 02:27:31;;;;;;;0.50;0.40;;;5.00;99.90;;;;;;5031899;28;20194;-78
2022/04/27 02:29:59;;;;;;;0.50;0.50;;;5.00;99.90;;;;;;5032084;28;20203;-79
2022/04/27 02:32:26;;;;;;;0.50;0.40;;;4.90;99.90;;;;;;5031984;28;20724;-79
2022/04/27 02:34:52;;;;;;;0.50;0.40;;;4.90;99.90;;;;;;5031162;28;20198;-79
2022/04/27 02:37:19;;;;;;;0.50;0.40;;;4.90;99.90;;;;;;5031523;28;20222;-78
2022/04/27 02:39:46;;;;;;;0.50;0.40;;;4.80;99.90;;;;;;5032176;28;20199;-79
2022/04/27 02:42:13;;;;;;;0.50;0.40;;;4.80;99.90;;;;;;5031820;28;20219;-79
2022/04/27 02:44:40;;;;;;;0.50;0.40;;;4.90;99.90;;;;;;5031497;28;20202;-78
2022/04/27 02:47:08;;;;;;;0.50;0.50;;;4.90;99.90;;;;;;5032358;28;20220;-78
2022/04/27 02:52:19;;;;;;;0.50;0.40;;;4.80;99.90;;;;;;5032198;28;20233;-78
2022/04/27 02:54:46;;;;;;;0.50;0.40;;;4.80;99.90;;;;;;5031730;28;20203;-78
2022/04/27 02:57:13;;;;;;;0.50;0.40;;;4.80;99.90;;;;;;5031966;28;20228;-77
2022/04/27 02:59:41;;;;;;;0.50;0.40;;;4.80;99.90;;;;;;5031754;28;20249;-79
2022/04/27 03:02:09;;;;;;;0.50;0.40;;;4.80;99.90;;;;;;5032368;28;20298;-79
2022/04/27 03:04:36;;;;;;;0.50;0.40;;;4.70;99.90;;;;;;5032543;28;20200;-79
2022/04/27 03:07:03;;;;;;;0.50;0.40;;;4.60;99.90;;;;;;5035634;28;20195;-79
2022/04/27 03:09:30;;;;;;;0.50;0.40;;;4.60;99.90;;;;;;5035702;28;20202;-78
2022/04/27 03:11:57;;;;;;;0.50;0.40;;;4.50;99.90;;;;;;5036138;28;20215;-78
2022/04/27 03:14:23;;;;;;;0.50;0.40;;;4.50;99.90;;;;;;5035868;28;20192;-78
2022/04/27 03:16:51;;;;;;;0.50;0.40;;;4.50;99.90;;;;;;5035932;28;20554;-78
2022/04/27 03:19:19;;;;;;;0.50;0.40;;;4.50;99.90;;;;;;5035504;28;20195;-78
2022/04/27 03:21:46;;;;;;;0.50;0.40;;;4.50;99.90;;;;;;5035620;28;20239;-78
2022/04/27 03:24:13;;;;;;;0.50;0.40;;;4.50;99.90;;;;;;5035944;28;20576;-79
2022/04/27 03:26:40;;;;;;;0.50;0.40;;;4.50;99.90;;;;;;5036018;28;20199;-77
2022/04/27 03:29:07;;;;;;;0.50;0.40;;;4.50;99.90;;;;;;5035905;28;20196;-78
2022/04/27 03:31:33;;;;;;;0.50;0.40;;;4.50;99.90;;;;;;5036359;28;20225;-79
2022/04/27 03:34:00;;;;;;;0.60;0.40;;;4.40;99.90;;;;;;5037410;28;20191;-77
2022/04/27 03:36:28;;;;;;;0.50;0.40;;;4.40;99.90;;;;;;5038431;28;20219;-79
2022/04/27 03:38:55;;;;;;;0.50;0.40;;;4.40;99.90;;;;;;5035361;28;20287;-80
2022/04/27 03:41:22;;;;;;;0.50;0.40;;;4.30;99.90;;;;;;5035381;28;20216;-80
2022/04/27 03:43:49;;;;;;;0.50;0.40;;;4.30;99.90;;;;;;5034775;28;20312;-79
2022/04/27 03:46:16;;;;;;;0.50;0.40;;;4.30;99.90;;;;;;5035431;28;20187;-79
2022/04/27 03:48:43;;;;;;;0.50;0.40;;;4.30;99.90;;;;;;5035879;28;20210;-80
2022/04/27 03:51:10;;;;;;;0.50;0.40;;;4.30;99.90;;;;;;5035665;28;20206;-80
2022/04/27 03:53:38;;;;;;;0.50;0.47;;;4.50;99.90;;;;;;5035871;28;20202;-81
2022/04/27 03:56:05;;;;;;;0.50;0.40;;;4.50;99.90;;;;;;5035614;28;20200;-80
2022/04/27 03:58:32;;;;;;;0.50;0.40;;;4.40;99.90;;;;;;5035780;28;20199;-80
2022/04/27 04:00:59;;;;;;;0.68;0.68;;;4.50;99.90;;;;;;5035926;28;20723;-79
2022/04/27 04:03:26;;;;;;;0.50;0.40;;;4.50;99.90;;;;;;5035480;28;20198;-80
2022/04/27 04:05:53;;;;;;;0.82;0.82;;;4.40;99.90;;;;;;5035431;28;20202;-80
2022/04/27 04:08:20;;;;;;;0.50;0.50;;;4.30;99.90;;;;;;5035249;28;20262;-80
2022/04/27 04:10:48;;;;;;;1.15;1.05;;;4.40;99.90;;;;;;5035648;28;20199;-81
2022/04/27 04:13:14;;;;;;;0.50;0.40;;;4.40;99.90;;;;;;5034712;28;20222;-81
2022/04/27 04:15:42;;;;;;;0.50;0.40;;;4.30;99.90;;;;;;5035216;28;20199;-78
2022/04/27 04:18:09;;;;;;;0.50;0.40;;;4.30;99.90;;;;;;5033856;28;20246;-77
2022/04/27 04:20:35;;;;;;;0.50;0.40;;;4.30;99.90;;;;;;5034718;28;20206;-77
2022/04/27 04:23:02;;;;;;;0.50;0.40;;;4.30;99.90;;;;;;5033665;28;20231;-78
2022/04/27 04:28:32;;;;;;;0.52;0.50;;;4.30;99.90;;;;;;5033495;28;20229;-79
2022/04/27 04:31:00;;;;;;;0.50;0.40;;;4.30;99.90;;;;;;5033231;28;20179;-77
2022/04/27 04:33:28;;;;;;;0.50;0.40;;;4.40;99.90;;;;;;5032674;28;20199;-77
2022/04/27 04:35:55;;;;;;;0.50;0.40;;;4.40;99.90;;;;;;5033536;28;20198;-77
2022/04/27 04:38:22;;;;;;;0.50;0.40;;;4.40;99.90;;;;;;5032911;28;20223;-78
2022/04/27 04:40:49;;;;;;;0.50;0.45;;;4.40;99.90;;;;;;5033440;28;20203;-78
2022/04/27 04:43:17;;;;;;;0.50;0.40;;;4.40;99.90;;;;;;5032770;28;20218;-78
2022/04/27 04:45:44;;;;;;;0.50;0.40;;;4.40;99.90;;;;;;5032945;28;20196;-78
2022/04/27 04:48:11;;;;;;;0.50;0.40;;;4.40;99.90;;;;;;5032781;28;20727;-78
2022/04/27 04:50:38;;;;;;;0.50;0.40;;;4.50;99.90;;;;;;5032792;28;20202;-78
2022/04/27 04:53:05;;;;;;;0.50;0.40;;;4.50;99.90;;;;;;5033131;28;20219;-78
2022/04/27 04:55:32;;;;;;;0.50;0.50;;;4.60;99.90;;;;;;5032562;28;20660;-77
2022/04/27 04:57:59;;;;;;;0.50;0.40;;;4.70;99.90;;;;;;5032651;28;20222;-77
2022/04/27 05:00:27;;;;;;;0.50;0.40;;;4.70;99.90;;;;;;5032763;28;20196;-78
2022/04/27 05:02:54;;;;;;;0.50;0.40;;;4.80;99.90;;;;;;5032939;28;20222;-78
2022/04/27 05:05:21;;;;;;;0.50;0.40;;;4.90;99.90;;;;;;5032334;28;20707;-77
2022/04/27 05:07:48;;;;;;;0.50;0.40;;;5.00;99.90;;;;;;5032635;28;20202;-78
2022/04/27 05:10:14;;;;;;;0.50;0.40;;;5.10;99.90;;;;;;5032562;28;20195;-78
2022/04/27 05:12:41;;;;;;;0.50;0.40;;;5.30;99.90;;;;;;5032601;28;20398;-77
2022/04/27 05:15:09;;;;;;;0.50;0.40;;;5.40;99.90;;;;;;5032257;28;20561;-78
2022/04/27 05:17:37;;;;;;;0.50;0.40;;;5.40;99.90;;;;;;5031903;28;20584;-78
2022/04/27 05:20:05;;;;;;;0.50;0.40;;;5.60;99.90;;;;;;5032319;28;20195;-78
2022/04/27 05:22:38;;;;;;;1.83;1.50;;;5.70;99.90;;;;;;5032108;28;20249;-77
2022/04/27 05:25:06;;;;;;;0.50;0.40;;;5.80;99.90;;;;;;5032182;28;20250;-76
2022/04/27 05:27:32;;;;;;;0.50;0.40;;;5.90;99.90;;;;;;5031724;28;20494;-78
2022/04/27 05:32:45;;;;;;;0.50;0.40;;;6.20;99.90;;;;;;5032582;28;20241;-77
2022/04/27 05:35:13;;;;;;;0.50;0.40;;;6.30;99.90;;;;;;5031883;28;20192;-78
2022/04/27 05:37:40;;;;;;;0.50;0.40;;;6.50;99.90;;;;;;5031651;28;20349;-78
2022/04/27 05:40:08;;;;;;;0.50;0.40;;;6.70;99.90;;;;;;5031972;28;20191;-77
2022/04/27 05:42:36;;;;;;;0.60;0.57;;;6.90;99.90;;;;;;5031540;28;20716;-78
2022/04/27 05:45:04;;;;;;;0.50;0.40;;;7.10;99.90;;;;;;5031782;28;20199;-76
2022/04/27 05:47:31;;;;;;;0.50;0.40;;;7.20;99.90;;;;;;5031968;28;20242;-78
2022/04/27 05:49:59;;;;;;;0.50;0.40;;;7.40;99.90;;;;;;5031405;28;20852;-77
2022/04/27 05:52:26;;;;;;;0.50;0.40;;;7.50;99.90;;;;;;5031674;28;20220;-77
2022/04/27 05:54:53;;;;;;;0.50;0.50;;;7.80;99.90;;;;;;5031651;28;20203;-78
2022/04/27 05:57:20;;;;;;;0.50;0.40;;;8.50;99.90;;;;;;5031703;28;20214;-78
2022/04/27 05:59:47;;;;;;;0.50;0.40;;;9.60;99.90;;;;;;5031427;28;20197;-78
2022/04/27 06:02:14;;;;;;;2.30;2.10;;;11.00;99.90;;;;;;5031522;28;20225;-78
2022/04/27 06:04:41;;;;;;;0.50;0.40;;;12.00;99.90;;;;;;5031055;28;20203;-76
2022/04/27 06:07:10;;;;;;;0.50;0.40;;;12.80;99.90;;;;;;5031586;28;20602;-76
2022/04/27 06:09:36;;;;;;;0.50;0.50;;;13.60;99.90;;;;;;5031150;28;20203;-78
2022/04/27 06:12:05;;;;;;;0.50;0.40;;;14.50;99.90;;;;;;5031696;28;20998;-77
2022/04/27 06:14:32;;;;;;;65.63;2.00;;;15.10;99.90;;;;;;5030856;28;20522;-78
2022/04/27 06:16:58;;;;;;;0.50;0.40;;;15.80;99.90;;;;;;5031392;28;20506;-77
2022/04/27 06:19:25;;;;;;;1.33;1.30;;;16.40;99.90;;;;;;5032373;28;20442;-79
2022/04/27 06:21:52;;;;;;;0.50;0.40;;;16.60;99.90;;;;;;5031715;28;20861;-79
2022/04/27 06:24:20;;;;;;;0.50;0.40;;;16.80;99.90;;;;;;5032086;28;20449;-78
2022/04/27 06:26:46;;;;;;;0.50;0.40;;;17.60;99.40;;;;;;5031876;28;20452;-78
2022/04/27 06:29:13;;;;;;;3.00;0.93;;;18.30;96.90;;;;;;5031927;28;20820;-79
2022/04/27 06:31:40;;;;;;;0.50;0.40;;;19.20;93.20;;;;;;5031898;28;20469;-79
2022/04/27 06:34:06;;;;;;;0.60;0.57;;;20.40;90.20;;;;;;5031798;28;20437;-78
2022/04/27 06:36:34;;;;;;;0.50;0.33;;;21.00;78.50;;;;;;5032592;28;20556;-79
2022/04/27 06:39:01;;;;;;;0.50;0.40;;;20.90;73.10;;;;;;5032333;28;20554;-78
2022/04/27 06:41:29;;;;;;;1.53;1.03;;;21.10;73.00;;;;;;5035714;28;20466;-80
2022/04/27 06:43:56;;;;;;;5.70;0.90;;;21.50;69.70;;;;;;5034655;28;20449;-79
2022/04/27 06:46:23;;;;;;;0.60;0.50;;;21.80;68.30;;;;;;5038474;28;20446;-78
2022/04/27 06:48:49;;;;;;;0.50;0.30;;;21.90;65.90;;;;;;5035654;28;20449;-78
2022/04/27 06:51:18;;;;;;;0.50;0.30;;;22.20;66.90;;;;;;5035739;28;20441;-79
2022/04/27 06:53:44;;;;;;;0.50;0.30;;;22.30;65.10;;;;;;5035285;28;20438;-79
2022/04/27 06:56:11;;;;;;;0.60;0.50;;;22.90;69.60;;;;;;5035850;28;20448;-79
2022/04/27 06:58:39;;;;;;;0.50;0.33;;;23.40;64.20;;;;;;5035275;28;20485;-79
2022/04/27 07:01:06;;;;;;;0.50;0.30;;;24.30;61.70;;;;;;5035308;28;20442;-78
2022/04/27 07:03:33;;;;;;;0.50;0.30;;;24.90;60.90;;;;;;5035765;28;20442;-80
2022/04/27 07:06:01;;;;;;;0.50;0.30;;;25.90;60.40;;;;;;5035689;28;20438;-79
2022/04/27 07:08:29;;;;;;;0.50;0.30;;;26.40;57.20;;;;;;5035232;28;20473;-79
2022/04/27 07:10:56;;;;;;;0.50;0.30;;;26.50;54.80;;;;;;5035259;28;20509;-77
2022/04/27 07:13:23;;;;;;;0.50;0.30;;;26.80;53.20;;;;;;5034508;28;20926;-79
2022/04/27 07:15:51;;;;;;;0.50;0.30;;;26.50;53.30;;;;;;5035511;28;20446;-78
2022/04/27 07:18:19;;;;;;;0.50;0.30;;;26.90;52.70;;;;;;5036458;28;20436;-75
2022/04/27 07:20:46;;;;;;;0.50;0.30;;;26.90;51.40;;;;;;5035742;28;20438;-77
2022/04/27 07:23:12;;;;;;;0.50;0.30;;;27.00;51.40;;;;;;5034607;28;20469;-77
2022/04/27 07:25:39;;;;;;;0.50;0.30;;;26.90;51.80;;;;;;5034759;28;20438;-77
2022/04/27 07:28:06;;;;;;;0.50;0.30;;;26.80;50.70;;;;;;5034428;28;20470;-76
2022/04/27 07:30:33;;;;;;;2.17;1.07;;;26.60;51.00;;;;;;5034845;28;20797;-77
2022/04/27 07:33:01;;;;;;;0.50;0.30;;;26.50;50.20;;;;;;5035282;28;20473;-77
2022/04/27 07:35:27;;;;;;;0.63;0.63;;;26.20;50.30;;;;;;5034054;28;20453;-77
2022/04/27 07:37:54;;;;;;;0.50;0.37;;;26.10;50.80;;;;;;5034273;28;20430;-77
2022/04/27 07:40:21;;;;;;;0.60;0.50;;;26.10;51.20;;;;;;5033755;28;20457;-77
2022/04/27 07:42:48;;;;;;;0.50;0.30;;;26.50;50.40;;;;;;5034916;28;20468;-77
2022/04/27 07:45:16;;;;;;;0.50;0.30;;;26.70;51.50;;;;;;5034190;28;20508;-76
2022/04/27 07:47:44;;;;;;;0.50;0.30;;;27.10;50.70;;;;;;5034325;28;20481;-77
2022/04/27 07:50:14;;;;;;;0.50;0.40;;;27.30;49.30;;;;;;5033940;28;20906;-76
2022/04/27 07:52:41;;;;;;;0.50;0.30;;;27.70;50.40;;;;;;5033278;28;20493;-77
2022/04/27 07:55:08;;;;;;;0.50;0.30;;;28.20;49.00;;;;;;5034324;28;20442;-77
2022/04/27 07:57:35;;;;;;;2.10;2.00;;;28.70;48.20;;;;;;5034137;28;20445;-77
2022/04/27 08:00:05;;;;;;;0.50;0.30;;;29.40;46.60;;;;;;5033880;28;20807;-78
2022/04/27 08:02:32;;;;;;;0.50;0.30;;;29.90;45.50;;;;;;5033999;28;20446;-78
2022/04/27 08:05:00;;;;;;;0.50;0.30;;;30.00;45.70;;;;;;5033771;28;20450;-77
2022/04/27 08:07:35;;;;;;;0.50;0.30;;;30.40;46.10;;;;;;5033158;28;20442;-77
2022/04/27 08:10:07;;;;;;;0.50;0.30;;;30.80;45.80;;;;;;5034093;28;20422;-78
2022/04/27 08:12:34;;;;;;;0.50;0.30;;;30.20;42.20;;;;;;5033524;28;20476;-78
2022/04/27 08:15:01;;;;;;;0.50;0.50;;;29.90;43.40;;;;;;5033022;28;20441;-78
2022/04/27 08:17:27;;;;;;;0.50;0.40;;;30.10;43.50;;;;;;5033386;28;20943;-78
2022/04/27 08:21:13;;;;;;;0.50;0.30;;;29.50;45.60;;;;;;5033501;28;20427;-79
2022/04/27 08:22:42;;;;;;;0.50;0.30;;;29.80;45.60;;;;;;5033367;28;20975;-76
2022/04/27 08:25:10;;;;;;;0.50;0.30;;;30.30;45.40;;;;;;5033946;28;20461;-78
2022/04/27 08:27:37;;;;;;;0.50;0.40;;;30.90;44.60;;;;;;5033306;28;20492;-78
2022/04/27 08:30:05;;;;;;;0.50;0.30;;;30.60;42.20;;;;;;5032692;28;21262;-77
2022/04/27 08:32:32;;;;;;;0.50;0.30;;;30.20;43.40;;;;;;5033785;28;20504;-78
2022/04/27 08:34:59;;;;;;;0.50;0.30;;;30.50;43.00;;;;;;5033702;28;20517;-79
2022/04/27 08:37:26;;;;;;;0.50;0.30;;;29.80;42.70;;;;;;5033126;28;20803;-78
2022/04/27 08:39:54;;;;;;;0.50;0.30;;;30.10;43.90;;;;;;5033258;28;20434;-77
2022/04/27 08:42:20;;;;;;;0.50;0.30;;;30.00;42.50;;;;;;5031020;28;20465;-78
2022/04/27 08:44:47;;;;;;;0.50;0.30;;;29.60;44.80;;;;;;5032979;28;20442;-79
2022/04/27 08:47:14;;;;;;;0.50;0.40;;;29.90;44.20;;;;;;5031333;28;20818;-78
2022/04/27 08:49:40;;;;;;;0.50;0.30;;;30.50;44.10;;;;;;5031836;28;20484;-77
2022/04/27 08:52:12;;;;;;;0.50;0.30;;;29.40;42.00;;;;;;5031977;28;20458;-77
2022/04/27 08:54:39;;;;;;;0.50;0.30;;;29.30;45.30;;;;;;5032376;28;20970;-77
2022/04/27 08:57:07;;;;;;;0.50;0.30;;;29.60;47.00;;;;;;5032094;28;20942;-79
2022/04/27 08:59:34;;;;;;;0.60;0.60;;;29.60;43.40;;;;;;5032349;28;20434;-78
2022/04/27 09:02:25;;;;;;;0.50;0.30;;;30.40;45.60;;;;;;5032843;28;20844;-77
2022/04/27 09:05:07;;;;;;;0.50;0.30;;;30.60;44.00;;;;;;5032330;28;20439;-77
2022/04/27 09:07:37;;;;;;;0.50;0.40;;;30.90;43.30;;;;;;5032564;28;20480;-78
2022/04/27 09:10:04;;;;;;;0.50;0.40;;;30.00;43.20;;;;;;5033006;28;20512;-78
2022/04/27 09:12:33;;;;;;;0.50;0.30;;;30.50;42.00;;;;;;5032995;28;20485;-78
2022/04/27 09:15:05;;;;;;;0.50;0.30;;;31.40;43.20;;;;;;5032694;28;20485;-78
2022/04/27 09:23:02;;;;;;;0.50;0.30;;;32.60;41.70;;;;;;5032963;28;20445;-78
2022/04/27 09:25:33;;;;;;;0.50;0.30;;;32.70;42.40;;;;;;5032580;28;20452;-78
2022/04/27 09:28:03;;;;;;;0.50;0.30;;;33.40;43.30;;;;;;5032731;28;20474;-79
2022/04/27 09:30:31;;;;;;;0.50;0.30;;;32.40;39.10;;;;;;5033006;28;20477;-78
2022/04/27 09:32:58;;;;;;;0.50;0.40;;;31.50;40.70;;;;;;5033018;28;20463;-78
2022/04/27 09:35:32;;;;;;;0.50;0.30;;;31.40;39.50;;;;;;5032869;28;20448;-79
2022/04/27 09:38:13;;;;;;;0.50;0.30;;;32.00;40.90;;;;;;5033267;28;20503;-78
2022/04/27 09:40:47;;;;;;;0.73;0.73;;;31.60;40.80;;;;;;5034599;28;20866;-79
2022/04/27 09:43:16;;;;;;;0.50;0.30;;;32.00;39.80;;;;;;5034860;28;20458;-77
2022/04/27 09:45:44;;;;;;;0.60;0.60;;;31.40;39.50;;;;;;5035121;28;20777;-76
2022/04/27 09:48:18;;;;;;;0.50;0.30;;;31.30;40.80;;;;;;5034572;28;20477;-76
2022/04/27 09:50:50;;;;;;;0.50;0.30;;;31.50;41.10;;;;;;5033990;28;20449;-77
2022/04/27 09:53:17;;;;;;;0.50;0.30;;;32.00;41.00;;;;;;5034009;28;20462;-77
2022/04/27 09:55:47;;;;;;;0.50;0.30;;;32.30;40.00;;;;;;5033912;28;20438;-78
2022/04/27 09:58:18;;;;;;;0.50;0.30;;;32.10;39.20;;;;;;5034626;28;20465;-77
2022/04/27 10:00:48;;;;;;;0.50;0.30;;;31.90;40.50;;;;;;5033638;28;20453;-79
2022/04/27 10:03:16;;;;;;;0.50;0.30;;;31.20;42.50;;;;;;5033766;28;20470;-78
2022/04/27 10:05:44;;;;;;;0.50;0.30;;;31.80;40.90;;;;;;5033029;28;20458;-79
2022/04/27 10:08:11;;;;;;;0.60;0.60;;;32.50;40.90;;;;;;5033275;28;20474;-77
2022/04/27 10:10:39;;;;;;;0.50;0.30;;;33.20;39.50;;;;;;5033289;28;20441;-77
2022/04/27 10:13:10;;;;;;;0.50;0.30;;;33.00;41.20;;;;;;5032832;28;20488;-77
2022/04/27 10:15:41;;;;;;;1.33;1.23;;;32.20;41.50;;;;;;5033953;28;20919;-78
2022/04/27 10:18:10;;;;;;;0.50;0.30;;;31.30;37.30;;;;;;5033589;28;20507;-78
2022/04/27 10:20:37;;;;;;;0.57;0.47;;;31.50;42.50;;;;;;5034356;28;20449;-77
2022/04/27 10:23:21;;;;;;;0.50;0.30;;;31.70;39.80;;;;;;5032968;28;20502;-78
2022/04/27 10:26:08;;;;;;;0.67;0.67;;;31.70;39.80;;;;;;5034469;28;20449;-77
2022/04/27 10:28:37;;;;;;;0.50;0.40;;;31.80;40.00;;;;;;5033239;28;20474;-78
2022/04/27 10:31:07;;;;;;;0.50;0.30;;;32.20;39.40;;;;;;5033131;28;20446;-77
2022/04/27 10:33:42;;;;;;;0.93;0.70;;;32.50;40.50;;;;;;5033188;28;20913;-76
2022/04/27 10:36:22;;;;;;;0.50;0.37;;;31.10;41.90;;;;;;5033839;28;20432;-78
2022/04/27 10:39:17;;;;;;;1.90;1.43;;;30.80;42.00;;;;;;5033731;28;20449;-77
2022/04/27 10:41:53;;;;;;;1.00;0.40;;;30.00;40.70;;;;;;5032725;28;20470;-77
2022/04/27 10:44:20;;;;;;;0.50;0.30;;;29.90;42.70;;;;;;5033220;28;20468;-78
2022/04/27 10:46:48;;;;;;;0.73;0.57;;;30.10;41.70;;;;;;5033159;28;20947;-76
2022/04/27 10:49:23;;;;;;;0.50;0.30;;;30.60;42.70;;;;;;5033469;28;20473;-78
2022/04/27 10:52:02;;;;;;;0.50;0.33;;;31.10;41.20;;;;;;5032014;28;20469;-78
2022/04/27 10:54:31;;;;;;;0.50;0.30;;;31.30;40.10;;;;;;5032520;28;20442;-78
2022/04/27 10:57:41;;;;;;;0.50;0.30;;;31.20;40.60;;;;;;5031216;28;20883;-78
2022/04/27 11:00:11;;;;;;;0.50;0.30;;;31.00;40.80;;;;;;5033729;28;20517;-78
2022/04/27 11:02:40;;;;;;;0.50;0.30;;;31.30;43.60;;;;;;5032968;28;20470;-77
2022/04/27 11:05:20;;;;;;;1.70;1.50;;;30.70;42.00;;;;;;5033275;28;20533;-77
2022/04/27 11:07:55;;;;;;;0.50;0.30;;;30.70;41.90;;;;;;5033435;28;20442;-78
2022/04/27 11:10:22;;;;;;;0.50;0.30;;;30.60;43.20;;;;;;5034058;28;20477;-77
2022/04/27 11:12:51;;;;;;;0.50;0.30;;;31.50;42.30;;;;;;5033291;28;20458;-78
2022/04/27 11:15:22;;;;;;;0.50;0.30;;;32.30;40.00;;;;;;5033056;28;20438;-77
2022/04/27 11:17:56;;;;;;;0.50;0.30;;;32.10;39.60;;;;;;5032236;28;20434;-76
2022/04/27 11:20:29;;;;;;;0.50;0.30;;;31.80;40.50;;;;;;5033576;28;20437;-76
2022/04/27 11:22:57;;;;;;;0.77;0.77;;;32.40;40.10;;;;;;5033471;28;20473;-78
2022/04/27 11:25:25;;;;;;;0.50;0.30;;;32.30;42.20;;;;;;5032756;28;20484;-78
2022/04/27 11:27:54;;;;;;;0.50;0.30;;;32.50;40.50;;;;;;5035123;28;20811;-78
2022/04/27 11:30:22;;;;;;;0.50;0.30;;;32.70;38.70;;;;;;5036762;28;20482;-78
2022/04/27 11:32:49;;;;;;;0.50;0.30;;;32.10;38.80;;;;;;5035922;28;20461;-77
2022/04/27 11:35:16;;;;;;;4.10;1.33;;;30.40;40.80;;;;;;5036349;28;20819;-77
2022/04/27 11:37:44;;;;;;;0.50;0.30;;;30.80;43.50;;;;;;5036271;28;20437;-77
2022/04/27 11:40:15;;;;;;;0.50;0.30;;;31.40;41.70;;;;;;5036718;28;20862;-77
2022/04/27 11:42:46;;;;;;;0.50;0.30;;;31.70;43.00;;;;;;5036409;28;20915;-78
2022/04/27 11:45:19;;;;;;;1.90;0.60;;;31.00;40.90;;;;;;5034395;28;20904;-78
2022/04/27 11:47:55;;;;;;;0.50;0.40;;;29.70;40.80;;;;;;5033672;28;20430;-77
2022/04/27 11:50:22;;;;;;;0.50;0.30;;;29.20;41.00;;;;;;5035637;28;20466;-77
2022/04/27 11:52:57;;;;;;;0.50;0.40;;;27.70;42.60;;;;;;5034950;28;20458;-78
2022/04/27 11:55:24;;;;;;;0.50;0.30;;;27.50;44.10;;;;;;5035219;28;20810;-77
2022/04/27 11:57:51;;;;;;;0.50;0.30;;;27.80;45.50;;;;;;5034915;28;20936;-77
2022/04/27 12:00:22;;;;;;;0.80;0.80;;;28.80;44.40;;;;;;5036656;28;20441;-78
2022/04/27 12:02:50;;;;;;;0.50;0.30;;;29.10;43.30;;;;;;5036790;28;21070;-77
2022/04/27 12:05:17;;;;;;;0.60;0.57;;;29.50;44.30;;;;;;5035422;28;20430;-77
2022/04/27 12:07:49;;;;;;;0.50;0.43;;;28.50;42.90;;;;;;5034884;28;20958;-77
2022/04/27 12:10:16;;;;;;;1.33;0.50;;;29.20;44.70;;;;;;5035437;28;20501;-78
2022/04/27 12:12:43;;;;;;;0.50;0.30;;;29.90;42.80;;;;;;5035100;28;20461;-78
2022/04/27 12:15:12;;;;;;;0.50;0.30;;;30.50;43.50;;;;;;5035255;28;20434;-78
2022/04/27 12:17:58;;;;;;;0.50;0.40;;;30.30;41.60;;;;;;5035465;28;20453;-78
2022/04/27 12:20:33;;;;;;;0.50;0.30;;;31.10;43.40;;;;;;5036095;28;20787;-78
2022/04/27 12:23:01;;;;;;;0.50;0.30;;;31.70;42.10;;;;;;5034915;28;20484;-78
2022/04/27 12:25:40;;;;;;;0.50;0.30;;;32.30;41.70;;;;;;5035730;28;20480;-78
2022/04/27 12:28:10;;;;;;;0.50;0.30;;;32.40;39.80;;;;;;5035601;28;20960;-78
2022/04/27 12:30:45;;;;;;;1.23;0.60;;;33.00;39.70;;;;;;5035987;28;20481;-77
2022/04/27 12:33:13;;;;;;;0.50;0.30;;;30.80;37.50;;;;;;5035217;28;20509;-79
2022/04/27 12:38:30;;;;;;;1.00;0.90;;;30.70;42.00;;;;;;5034617;28;20476;-77
2022/04/27 12:40:58;;;;;;;0.50;0.50;;;30.10;42.00;;;;;;5062748;22;20503;-74
2022/04/27 12:43:24;;;;;;;0.50;0.47;;;30.00;43.00;;;;;;5050302;28;20434;-74
2022/04/27 12:46:10;;;;;;;0.50;0.30;;;29.80;42.50;;;;;;5053008;28;20468;-75
2022/04/27 12:48:38;;;;;;;0.50;0.30;;;30.20;42.90;;;;;;5052308;28;20424;-75
2022/04/27 12:51:08;;;;;;;0.50;0.30;;;30.30;43.10;;;;;;5052924;28;20461;-75
2022/04/27 12:53:35;;;;;;;0.50;0.30;;;31.00;43.10;;;;;;5052274;28;20445;-74
2022/04/27 12:56:15;;;;;;;0.60;0.57;;;31.40;42.40;;;;;;5051991;28;20445;-74
2022/04/27 12:58:42;;;;;;;0.50;0.30;;;30.30;39.10;;;;;;5052087;28;20870;-75
2022/04/27 13:01:27;;;;;;;0.50;0.30;;;29.70;40.10;;;;;;5052419;28;20460;-75
2022/04/27 13:03:55;;;;;;;0.50;0.30;;;30.30;41.60;;;;;;5051842;28;20491;-75
2022/04/27 13:06:22;;;;;;;2.77;1.40;;;30.40;41.80;;;;;;5052594;28;20437;-74
2022/04/27 13:08:49;;;;;;;3.30;1.47;;;28.50;40.90;;;;;;5052577;28;20441;-74
2022/04/27 13:14:00;;;;;;;0.50;0.30;;;27.30;46.80;;;;;;5051938;28;20829;-75
2022/04/27 13:16:27;;;;;;;1.63;0.80;;;27.30;46.50;;;;;;5053289;28;20938;-76
2022/04/27 13:18:56;;;;;;;0.50;0.40;;;27.90;44.20;;;;;;5053268;28;20464;-72
2022/04/27 13:21:22;;;;;;;2.30;1.67;;;28.30;44.40;;;;;;5052442;28;20472;-75